createdAt,value
2023-05-21T00:02:04.226Z,14.90
2023-05-21T00:05:14.385Z,14.88
2023-05-21T00:08:17.348Z,14.80
2023-05-21T00:11:20.197Z,14.83
2023-05-21T00:14:22.678Z,14.78
2023-05-21T00:17:26.360Z,14.75
2023-05-21T00:20:29.389Z,14.80
2023-05-21T00:23:32.925Z,14.82
2023-05-21T00:26:35.384Z,14.88
2023-05-21T00:29:38.464Z,14.85
2023-05-21T00:32:41.272Z,14.87
2023-05-21T00:35:44.479Z,14.93
2023-05-21T00:38:47.020Z,15.01
2023-05-21T00:41:50.176Z,14.94
2023-05-21T00:44:54.169Z,15.01
2023-05-21T00:47:57.127Z,14.99
2023-05-21T00:50:59.809Z,14.96
2023-05-21T00:54:02.921Z,14.94
2023-05-21T00:57:05.973Z,14.88
2023-05-21T01:00:10.869Z,14.86
2023-05-21T01:03:13.969Z,14.84
2023-05-21T01:06:16.932Z,14.88
2023-05-21T01:09:20.005Z,14.88
2023-05-21T01:12:23.580Z,14.86
2023-05-21T01:15:26.168Z,14.98
2023-05-21T01:18:29.886Z,14.99
2023-05-21T01:21:36.098Z,14.99
2023-05-21T01:24:39.017Z,15.01
2023-05-21T01:27:41.640Z,14.92
2023-05-21T01:30:45.549Z,14.89
2023-05-21T01:33:50.575Z,14.84
2023-05-21T01:37:01.057Z,14.84
2023-05-21T01:40:40.788Z,14.78
2023-05-21T01:43:45.729Z,14.66
2023-05-21T01:46:49.574Z,14.66
2023-05-21T01:49:52.592Z,14.63
2023-05-21T01:53:01.221Z,14.61
2023-05-21T01:56:04.896Z,14.56
2023-05-21T01:59:07.435Z,14.55
2023-05-21T02:02:10.401Z,14.51
2023-05-21T02:05:13.617Z,14.50
2023-05-21T02:08:16.296Z,14.53
2023-05-21T02:11:19.076Z,14.44
2023-05-21T02:14:21.944Z,14.30
2023-05-21T02:17:24.768Z,14.20
2023-05-21T02:20:28.063Z,14.10
2023-05-21T02:23:30.876Z,14.05
2023-05-21T02:26:33.413Z,13.97
2023-05-21T02:29:36.815Z,13.90
2023-05-21T02:32:43.141Z,13.83
2023-05-21T02:35:46.125Z,13.77
2023-05-21T02:38:49.165Z,13.76
2023-05-21T02:41:51.970Z,13.75
2023-05-21T02:44:54.633Z,13.73
2023-05-21T02:47:58.016Z,13.67
2023-05-21T02:51:00.615Z,13.62
2023-05-21T02:54:04.054Z,13.58
2023-05-21T02:57:06.810Z,13.51
2023-05-21T03:00:10.667Z,13.45
2023-05-21T03:03:14.080Z,13.38
2023-05-21T03:06:17.599Z,13.36
2023-05-21T03:09:21.705Z,13.28
2023-05-21T03:12:24.545Z,13.24
2023-05-21T03:15:27.084Z,13.24
2023-05-21T03:18:29.814Z,13.27
2023-05-21T03:21:32.415Z,13.25
2023-05-21T03:24:35.351Z,13.20
2023-05-21T03:27:39.590Z,13.28
2023-05-21T03:30:46.886Z,13.30
2023-05-21T03:33:50.302Z,13.34
2023-05-21T03:36:53.415Z,13.29
2023-05-21T03:39:57.062Z,13.32
2023-05-21T03:42:59.895Z,13.30
2023-05-21T03:46:03.026Z,13.32
2023-05-21T03:49:08.673Z,13.29
2023-05-21T03:52:11.654Z,13.38
2023-05-21T03:55:14.483Z,13.43
2023-05-21T03:58:17.271Z,13.51
2023-05-21T04:01:20.420Z,13.55
2023-05-21T04:04:23.580Z,13.62
2023-05-21T04:07:27.143Z,13.68
2023-05-21T04:10:30.488Z,13.67
2023-05-21T04:13:33.105Z,13.90
2023-05-21T04:16:38.726Z,13.99
2023-05-21T04:19:42.133Z,14.06
2023-05-21T04:22:45.187Z,14.11
2023-05-21T04:25:50.896Z,14.20
2023-05-21T04:28:55.538Z,14.28
2023-05-21T04:31:58.115Z,14.41
2023-05-21T04:35:01.240Z,14.54
2023-05-21T04:38:05.846Z,14.72
2023-05-21T04:41:12.232Z,14.86
2023-05-21T04:44:15.376Z,15.05
2023-05-21T04:47:18.656Z,15.47
2023-05-21T04:50:21.267Z,15.90
2023-05-21T04:53:26.200Z,16.27
2023-05-21T04:56:29.588Z,16.68
2023-05-21T04:59:32.496Z,17.00
2023-05-21T05:02:35.600Z,17.24
2023-05-21T05:05:38.672Z,17.40
2023-05-21T05:08:42.141Z,17.39
2023-05-21T05:11:45.162Z,17.45
2023-05-21T05:14:47.708Z,17.49
2023-05-21T05:17:50.596Z,17.52
2023-05-21T05:20:53.168Z,17.47
2023-05-21T05:23:56.199Z,17.58
2023-05-21T05:26:59.112Z,17.75
2023-05-21T05:30:01.929Z,17.83
2023-05-21T05:33:04.721Z,17.79
2023-05-21T05:36:07.837Z,17.65
2023-05-21T05:39:10.860Z,17.85
2023-05-21T05:42:13.967Z,17.93
2023-05-21T05:45:16.475Z,18.02
2023-05-21T05:48:19.402Z,17.99
2023-05-21T05:51:22.026Z,18.01
2023-05-21T05:54:24.870Z,18.07
2023-05-21T05:57:27.339Z,18.21
2023-05-21T06:00:30.918Z,18.23
2023-05-21T06:03:34.447Z,18.21
2023-05-21T06:06:42.136Z,18.25
2023-05-21T06:09:44.922Z,18.37
2023-05-21T06:12:47.610Z,18.44
2023-05-21T06:15:51.579Z,18.48
2023-05-21T06:18:54.752Z,18.46
2023-05-21T06:21:57.676Z,18.68
2023-05-21T06:25:01.243Z,18.79
2023-05-21T06:28:04.230Z,18.99
2023-05-21T06:31:07.083Z,18.89
2023-05-21T06:34:11.785Z,19.03
2023-05-21T06:37:14.323Z,19.05
2023-05-21T06:40:17.324Z,19.07
2023-05-21T06:43:21.267Z,19.26
2023-05-21T06:46:27.213Z,19.36
2023-05-21T06:49:29.844Z,19.48
2023-05-21T06:52:32.841Z,19.50
2023-05-21T06:55:36.518Z,19.80
2023-05-21T06:58:40.936Z,19.83
2023-05-21T07:01:44.201Z,20.00
2023-05-21T07:04:47.244Z,20.34
2023-05-21T07:07:49.788Z,20.56
2023-05-21T07:10:52.643Z,20.55
2023-05-21T07:13:58.110Z,20.78
2023-05-21T07:17:01.067Z,20.96
2023-05-21T07:20:06.878Z,21.27
2023-05-21T07:23:10.400Z,21.56
2023-05-21T07:26:13.036Z,22.56
2023-05-21T07:29:16.036Z,23.18
2023-05-21T07:32:18.690Z,24.07
2023-05-21T07:35:21.732Z,24.64
2023-05-21T07:38:24.501Z,25.44
2023-05-21T07:41:27.339Z,26.34
2023-05-21T07:44:30.645Z,26.27
2023-05-21T07:47:33.869Z,27.30
2023-05-21T07:50:37.782Z,27.92
2023-05-21T07:53:41.083Z,28.24
2023-05-21T07:56:44.626Z,27.59
2023-05-21T07:59:48.396Z,28.67
2023-05-21T08:02:52.512Z,29.03
2023-05-21T08:05:56.633Z,29.58
2023-05-21T08:09:00.011Z,30.27
2023-05-21T08:12:04.000Z,28.14
2023-05-21T08:15:07.772Z,29.88
2023-05-21T08:18:12.325Z,29.38
2023-05-21T08:21:17.598Z,30.66
2023-05-21T08:24:20.855Z,31.74
2023-05-21T08:27:24.149Z,31.58
2023-05-21T08:30:27.317Z,30.02
2023-05-21T08:33:29.858Z,28.37
2023-05-21T08:36:33.034Z,27.07
2023-05-21T08:39:36.958Z,26.37
2023-05-21T08:42:44.014Z,28.49
2023-05-21T08:45:54.387Z,30.74
2023-05-21T08:48:59.175Z,29.35
2023-05-21T08:52:02.538Z,29.92
2023-05-21T08:55:06.154Z,28.40
2023-05-21T08:58:10.341Z,29.27
2023-05-21T09:01:13.429Z,31.45
2023-05-21T09:04:21.162Z,31.18
2023-05-21T09:07:27.468Z,31.99
2023-05-21T09:10:37.168Z,31.48
2023-05-21T09:13:40.767Z,33.13
2023-05-21T09:16:48.383Z,33.81
2023-05-21T09:20:12.514Z,33.25
2023-05-21T09:23:17.893Z,33.43
2023-05-21T09:26:21.765Z,32.87
2023-05-21T09:29:26.179Z,33.31
2023-05-21T09:32:29.041Z,33.58
2023-05-21T09:35:31.784Z,33.57
2023-05-21T09:38:34.963Z,31.92
2023-05-21T09:41:38.122Z,34.29
2023-05-21T09:44:44.147Z,35.10
2023-05-21T09:47:48.019Z,34.90
2023-05-21T09:50:50.810Z,35.47
2023-05-21T09:54:01.292Z,33.69
2023-05-21T09:57:04.306Z,33.71
2023-05-21T10:00:09.000Z,34.82
2023-05-21T10:03:17.110Z,35.60
2023-05-21T10:06:21.124Z,35.54
2023-05-21T10:09:23.809Z,35.52
2023-05-21T10:12:28.839Z,34.67
2023-05-21T10:15:34.664Z,34.73
2023-05-21T10:18:38.166Z,35.25
2023-05-21T10:21:41.152Z,35.80
2023-05-21T10:24:45.357Z,34.94
2023-05-21T10:27:48.516Z,34.75
2023-05-21T10:30:52.386Z,33.20
2023-05-21T10:33:55.797Z,34.60
2023-05-21T10:37:01.694Z,33.62
2023-05-21T10:40:04.621Z,34.56
2023-05-21T10:43:45.525Z,34.14
2023-05-21T10:47:05.321Z,33.57
2023-05-21T10:50:08.110Z,34.83
2023-05-21T10:53:41.878Z,35.81
2023-05-21T10:56:49.352Z,34.57
2023-05-21T10:59:51.987Z,34.60
2023-05-21T11:02:55.062Z,35.97
2023-05-21T11:05:58.056Z,34.33
2023-05-21T11:09:13.983Z,34.10
2023-05-21T11:12:18.021Z,35.22
2023-05-21T11:15:20.873Z,35.34
2023-05-21T11:18:35.742Z,35.56
2023-05-21T11:21:40.519Z,35.69
2023-05-21T11:24:43.102Z,33.86
2023-05-21T11:27:47.742Z,33.68
2023-05-21T11:31:29.831Z,33.28
2023-05-21T11:34:50.679Z,31.88
2023-05-21T11:37:54.000Z,33.43
2023-05-21T11:41:02.094Z,33.71
2023-05-21T11:44:08.807Z,32.74
2023-05-21T11:47:18.450Z,33.10
2023-05-21T11:50:21.108Z,32.89
2023-05-21T11:53:23.940Z,31.09
2023-05-21T11:56:26.857Z,30.45
2023-05-21T11:59:29.919Z,30.29
2023-05-21T12:02:33.114Z,29.96
2023-05-21T12:05:48.841Z,30.13
2023-05-21T12:08:52.533Z,29.87
2023-05-21T12:11:55.539Z,29.71
2023-05-21T12:14:58.420Z,29.05
2023-05-21T12:18:01.368Z,28.41
2023-05-21T12:21:04.896Z,28.05
2023-05-21T12:24:07.766Z,28.26
2023-05-21T12:27:12.913Z,27.76
2023-05-21T12:30:15.881Z,28.65
2023-05-21T12:33:18.928Z,28.29
2023-05-21T12:36:30.425Z,28.56
2023-05-21T12:39:37.674Z,28.82
2023-05-21T12:42:40.687Z,29.01
2023-05-21T12:45:43.295Z,28.56
2023-05-21T12:48:51.502Z,28.88
2023-05-21T12:51:56.725Z,28.43
2023-05-21T12:55:01.218Z,28.01
2023-05-21T12:58:05.629Z,28.14
2023-05-21T13:01:12.082Z,28.05
2023-05-21T13:04:15.386Z,27.42
2023-05-21T13:07:18.468Z,27.79
2023-05-21T13:10:21.448Z,27.86
2023-05-21T13:13:24.239Z,28.11
2023-05-21T13:16:27.083Z,27.89
2023-05-21T13:19:29.879Z,28.03
2023-05-21T13:22:32.794Z,27.47
2023-05-21T13:25:35.314Z,27.19
2023-05-21T13:28:38.082Z,26.90
2023-05-21T13:31:44.175Z,26.85
2023-05-21T13:34:48.005Z,26.73
2023-05-21T13:37:51.517Z,26.72
2023-05-21T13:40:55.064Z,26.76
2023-05-21T13:43:58.437Z,26.68
2023-05-21T13:47:01.481Z,26.55
2023-05-21T13:50:04.316Z,26.27
2023-05-21T13:53:08.030Z,26.37
2023-05-21T13:56:10.942Z,26.36
2023-05-21T13:59:13.764Z,26.20
2023-05-21T14:02:16.609Z,26.15
2023-05-21T14:05:19.544Z,25.99
2023-05-21T14:08:23.668Z,26.09
2023-05-21T14:11:27.713Z,25.82
2023-05-21T14:14:30.238Z,25.94
2023-05-21T14:17:33.075Z,26.28
2023-05-21T14:20:36.547Z,26.13
2023-05-21T14:23:39.292Z,26.30
2023-05-21T14:26:41.957Z,26.51
2023-05-21T14:29:44.769Z,26.29
2023-05-21T14:32:47.241Z,26.17
2023-05-21T14:35:50.040Z,26.07
2023-05-21T14:38:52.562Z,26.29
2023-05-21T14:41:55.348Z,26.39
2023-05-21T14:48:03.214Z,26.11
2023-05-21T14:51:05.891Z,25.90
2023-05-21T14:54:08.737Z,25.90
2023-05-21T15:00:20.014Z,25.76
2023-05-21T15:03:22.688Z,25.77
2023-05-21T15:06:25.658Z,25.63
2023-05-21T15:09:28.187Z,25.58
2023-05-21T15:12:30.998Z,25.62
2023-05-21T15:15:33.757Z,25.56
2023-05-21T15:18:36.680Z,25.61
2023-05-21T15:21:39.341Z,25.65
2023-05-21T15:24:42.207Z,25.78
2023-05-21T15:27:44.907Z,25.73
2023-05-21T15:30:47.661Z,25.67
2023-05-21T15:33:50.229Z,25.49
2023-05-21T15:36:52.954Z,25.43
2023-05-21T15:39:55.495Z,25.35
2023-05-21T15:42:58.273Z,25.23
2023-05-21T15:46:00.887Z,25.23
2023-05-21T15:49:03.649Z,25.28
2023-05-21T15:52:06.762Z,25.26
2023-05-21T15:55:09.904Z,25.22
2023-05-21T15:58:12.605Z,25.21
2023-05-21T16:01:15.495Z,25.11
2023-05-21T16:04:20.328Z,25.06
2023-05-21T16:07:23.686Z,25.10
2023-05-21T16:10:26.512Z,24.93
2023-05-21T16:13:28.956Z,24.82
2023-05-21T16:16:31.928Z,24.83
2023-05-21T16:19:34.409Z,24.69
2023-05-21T16:22:37.227Z,24.58
2023-05-21T16:25:40.147Z,24.53
2023-05-21T16:28:43.120Z,24.48
2023-05-21T16:31:45.568Z,24.49
2023-05-21T16:34:48.388Z,24.45
2023-05-21T16:37:50.815Z,24.37
2023-05-21T16:40:53.622Z,24.37
2023-05-21T16:43:56.263Z,24.33
2023-05-21T16:46:59.867Z,24.21
2023-05-21T16:50:02.453Z,24.18
2023-05-21T16:53:06.858Z,24.19
2023-05-21T16:56:09.315Z,24.18
2023-05-21T16:59:13.620Z,24.13
2023-05-21T17:02:16.151Z,24.07
2023-05-21T17:05:19.012Z,24.03
2023-05-21T17:08:21.492Z,24.01
2023-05-21T17:11:24.287Z,23.96
2023-05-21T17:14:34.140Z,23.95
2023-05-21T17:17:37.830Z,23.90
2023-05-21T17:20:40.463Z,23.86
2023-05-21T17:23:43.276Z,23.79
2023-05-21T17:26:45.759Z,23.75
2023-05-21T17:29:48.660Z,23.69
2023-05-21T17:32:51.192Z,23.58
2023-05-21T17:35:56.442Z,23.48
2023-05-21T17:38:59.495Z,23.38
2023-05-21T17:42:02.348Z,23.36
2023-05-21T17:45:06.109Z,23.28
2023-05-21T17:48:08.994Z,23.19
2023-05-21T17:51:13.520Z,23.09
2023-05-21T17:54:16.498Z,22.94
2023-05-21T17:57:20.277Z,22.75
2023-05-21T18:00:23.183Z,22.64
2023-05-21T18:03:26.003Z,22.51
2023-05-21T18:06:29.085Z,22.33
2023-05-21T18:09:31.808Z,22.12
2023-05-21T18:12:35.043Z,21.92
2023-05-21T18:15:38.013Z,21.78
2023-05-21T18:18:41.678Z,21.67
2023-05-21T18:21:44.706Z,21.62
2023-05-21T18:24:47.193Z,21.55
2023-05-21T18:27:49.999Z,21.43
2023-05-21T18:30:52.621Z,21.20
2023-05-21T18:33:55.683Z,21.06
2023-05-21T18:36:58.780Z,20.95
2023-05-21T18:40:01.704Z,20.90
2023-05-21T18:43:06.069Z,20.82
2023-05-21T18:46:08.930Z,20.67
2023-05-21T18:49:11.556Z,20.59
2023-05-21T18:52:14.496Z,20.49
2023-05-21T18:55:16.949Z,20.34
2023-05-21T18:58:19.872Z,20.24
2023-05-21T19:01:22.547Z,20.03
2023-05-21T19:04:25.612Z,19.91
2023-05-21T19:07:28.384Z,19.82
2023-05-21T19:10:31.108Z,19.78
2023-05-21T19:13:34.180Z,19.69
2023-05-21T19:16:37.030Z,19.66
2023-05-21T19:19:40.136Z,19.55
2023-05-21T19:22:42.906Z,19.42
2023-05-21T19:25:45.486Z,19.38
2023-05-21T19:28:53.129Z,19.27
2023-05-21T19:31:58.298Z,19.22
2023-05-21T19:35:01.095Z,19.13
2023-05-21T19:38:05.486Z,19.00
2023-05-21T19:41:08.439Z,18.91
2023-05-21T19:44:11.152Z,18.83
2023-05-21T19:47:13.984Z,18.71
2023-05-21T19:50:16.496Z,18.62
2023-05-21T19:53:19.283Z,18.56
2023-05-21T19:56:22.018Z,18.45
2023-05-21T19:59:24.797Z,18.35
2023-05-21T20:02:28.804Z,18.27
2023-05-21T20:05:31.608Z,18.19
2023-05-21T20:08:34.446Z,18.14
2023-05-21T20:11:37.236Z,18.06
2023-05-21T20:14:39.717Z,17.96
2023-05-21T20:17:44.220Z,17.81
2023-05-21T20:20:46.894Z,17.80
2023-05-21T20:23:50.177Z,17.76
2023-05-21T20:26:54.928Z,17.68
2023-05-21T20:29:57.706Z,17.57
2023-05-21T20:33:02.041Z,17.52
2023-05-21T20:36:04.953Z,17.46
2023-05-21T20:39:09.217Z,17.37
2023-05-21T20:42:14.979Z,17.32
2023-05-21T20:45:17.582Z,17.26
2023-05-21T20:48:20.299Z,17.23
2023-05-21T20:51:22.738Z,17.24
2023-05-21T20:54:26.910Z,17.18
2023-05-21T20:57:29.640Z,17.16
2023-05-21T21:00:33.399Z,17.07
2023-05-21T21:03:36.932Z,17.02
2023-05-21T21:06:40.399Z,16.97
2023-05-21T21:09:42.958Z,16.98
2023-05-21T21:12:45.776Z,17.02
2023-05-21T21:15:48.294Z,17.01
2023-05-21T21:18:51.226Z,17.00
2023-05-21T21:21:53.754Z,16.98
2023-05-21T21:24:56.528Z,16.96
2023-05-21T21:27:58.986Z,16.88
2023-05-21T21:31:01.758Z,16.87
2023-05-21T21:34:04.356Z,16.82
2023-05-21T21:37:07.276Z,16.77
2023-05-21T21:40:09.956Z,16.72
2023-05-21T21:43:12.751Z,16.71
2023-05-21T21:46:15.631Z,16.69
2023-05-21T21:49:18.507Z,16.58
2023-05-21T21:52:21.088Z,16.54
2023-05-21T21:55:23.866Z,16.51
2023-05-21T21:58:26.395Z,16.32
2023-05-21T22:01:29.788Z,16.45
2023-05-21T22:04:32.702Z,16.44
2023-05-21T22:07:35.596Z,16.43
2023-05-21T22:10:38.735Z,16.37
2023-05-21T22:13:44.300Z,16.28
2023-05-21T22:16:53.146Z,16.26
2023-05-21T22:19:56.168Z,16.23
2023-05-21T22:22:59.750Z,16.19
2023-05-21T22:26:02.273Z,16.18
2023-05-21T22:29:05.032Z,16.18
2023-05-21T22:32:07.538Z,16.13
2023-05-21T22:35:10.402Z,16.16
2023-05-21T22:38:12.931Z,16.03
2023-05-21T22:41:15.746Z,16.09
2023-05-21T22:44:18.285Z,16.03
2023-05-21T22:47:23.820Z,16.03
2023-05-21T22:50:29.103Z,15.98
2023-05-21T22:53:32.374Z,15.93
2023-05-21T22:56:34.898Z,15.99
2023-05-21T22:59:37.650Z,16.01
2023-05-21T23:02:40.226Z,16.01
2023-05-21T23:05:43.270Z,15.99
2023-05-21T23:08:45.902Z,15.96
2023-05-21T23:11:48.672Z,15.96
2023-05-21T23:14:51.194Z,15.96
2023-05-21T23:17:53.994Z,15.87
2023-05-21T23:20:57.193Z,15.87
2023-05-21T23:24:00.092Z,15.83
2023-05-21T23:27:03.094Z,15.75
2023-05-21T23:30:06.518Z,15.75
2023-05-21T23:33:09.873Z,15.79
2023-05-21T23:36:12.784Z,15.71
2023-05-21T23:39:15.695Z,15.61
2023-05-21T23:42:18.839Z,15.55
2023-05-21T23:45:21.441Z,15.52
2023-05-21T23:48:24.383Z,15.53
2023-05-21T23:51:27.130Z,15.51
2023-05-21T23:54:29.875Z,15.51
2023-05-21T23:57:32.379Z,15.49
